sensor_id;sensor_type;location;lat;lon;timestamp;P1;durP1;ratioP1;P2;durP2;ratioP2
12088;SDS011;6107;49.078;8.578;2023-03-23T00:01:20;1.17;;;1.00;;
12088;SDS011;6107;49.078;8.578;2023-03-23T00:03:47;1.23;;;1.10;;
12088;SDS011;6107;49.078;8.578;2023-03-23T00:06:14;1.90;;;1.10;;
12088;SDS011;6107;49.078;8.578;2023-03-23T00:08:43;2.27;;;1.23;;
12088;SDS011;6107;49.078;8.578;2023-03-23T00:11:15;1.20;;;1.10;;
12088;SDS011;6107;49.078;8.578;2023-03-23T00:13:42;1.83;;;1.37;;
12088;SDS011;6107;49.078;8.578;2023-03-23T00:16:09;1.53;;;1.10;;
12088;SDS011;6107;49.078;8.578;2023-03-23T00:18:44;2.67;;;1.10;;
12088;SDS011;6107;49.078;8.578;2023-03-23T00:21:11;3.57;;;1.30;;
12088;SDS011;6107;49.078;8.578;2023-03-23T00:23:36;1.90;;;1.07;;
12088;SDS011;6107;49.078;8.578;2023-03-23T00:26:04;2.33;;;1.20;;
12088;SDS011;6107;49.078;8.578;2023-03-23T00:28:30;1.83;;;1.23;;
12088;SDS011;6107;49.078;8.578;2023-03-23T00:30:57;2.60;;;1.40;;
12088;SDS011;6107;49.078;8.578;2023-03-23T00:33:24;1.90;;;1.40;;
12088;SDS011;6107;49.078;8.578;2023-03-23T00:35:51;1.70;;;1.20;;
12088;SDS011;6107;49.078;8.578;2023-03-23T00:38:18;1.30;;;1.20;;
12088;SDS011;6107;49.078;8.578;2023-03-23T00:40:44;1.67;;;1.40;;
12088;SDS011;6107;49.078;8.578;2023-03-23T00:43:12;6.83;;;3.83;;
12088;SDS011;6107;49.078;8.578;2023-03-23T00:45:38;3.83;;;1.73;;
12088;SDS011;6107;49.078;8.578;2023-03-23T00:48:04;2.30;;;1.40;;
12088;SDS011;6107;49.078;8.578;2023-03-23T00:50:31;8.70;;;5.53;;
12088;SDS011;6107;49.078;8.578;2023-03-23T00:52:57;5.97;;;3.70;;
12088;SDS011;6107;49.078;8.578;2023-03-23T00:55:24;3.03;;;2.27;;
12088;SDS011;6107;49.078;8.578;2023-03-23T00:57:50;3.23;;;1.33;;
12088;SDS011;6107;49.078;8.578;2023-03-23T01:00:16;2.30;;;1.30;;
12088;SDS011;6107;49.078;8.578;2023-03-23T01:02:43;1.87;;;1.20;;
12088;SDS011;6107;49.078;8.578;2023-03-23T01:05:10;1.93;;;1.37;;
12088;SDS011;6107;49.078;8.578;2023-03-23T01:07:36;6.00;;;2.63;;
12088;SDS011;6107;49.078;8.578;2023-03-23T01:10:03;5.30;;;1.40;;
12088;SDS011;6107;49.078;8.578;2023-03-23T01:12:29;1.93;;;1.40;;
12088;SDS011;6107;49.078;8.578;2023-03-23T01:14:55;2.23;;;1.37;;
12088;SDS011;6107;49.078;8.578;2023-03-23T01:17:21;4.37;;;1.30;;
12088;SDS011;6107;49.078;8.578;2023-03-23T01:19:47;3.60;;;1.43;;
12088;SDS011;6107;49.078;8.578;2023-03-23T01:22:13;3.03;;;1.37;;
12088;SDS011;6107;49.078;8.578;2023-03-23T01:24:39;1.47;;;1.10;;
12088;SDS011;6107;49.078;8.578;2023-03-23T01:27:06;2.03;;;1.23;;
12088;SDS011;6107;49.078;8.578;2023-03-23T01:29:33;3.00;;;1.40;;
12088;SDS011;6107;49.078;8.578;2023-03-23T01:31:59;3.30;;;1.30;;
12088;SDS011;6107;49.078;8.578;2023-03-23T01:34:25;2.37;;;1.17;;
12088;SDS011;6107;49.078;8.578;2023-03-23T01:36:51;1.60;;;1.40;;
12088;SDS011;6107;49.078;8.578;2023-03-23T01:39:17;2.50;;;1.57;;
12088;SDS011;6107;49.078;8.578;2023-03-23T01:41:43;1.20;;;1.10;;
12088;SDS011;6107;49.078;8.578;2023-03-23T01:46:41;1.47;;;1.37;;
12088;SDS011;6107;49.078;8.578;2023-03-23T01:49:09;3.13;;;1.30;;
12088;SDS011;6107;49.078;8.578;2023-03-23T01:51:37;3.13;;;1.60;;
12088;SDS011;6107;49.078;8.578;2023-03-23T01:54:06;1.93;;;1.73;;
12088;SDS011;6107;49.078;8.578;2023-03-23T01:56:38;3.50;;;2.40;;
12088;SDS011;6107;49.078;8.578;2023-03-23T01:59:06;2.07;;;1.63;;
12088;SDS011;6107;49.078;8.578;2023-03-23T02:01:32;1.83;;;1.43;;
12088;SDS011;6107;49.078;8.578;2023-03-23T02:04:03;2.63;;;1.80;;
12088;SDS011;6107;49.078;8.578;2023-03-23T02:06:30;1.70;;;1.50;;
12088;SDS011;6107;49.078;8.578;2023-03-23T02:08:56;5.30;;;3.60;;
12088;SDS011;6107;49.078;8.578;2023-03-23T02:11:23;4.07;;;2.37;;
12088;SDS011;6107;49.078;8.578;2023-03-23T02:13:49;3.30;;;2.50;;
12088;SDS011;6107;49.078;8.578;2023-03-23T02:19:10;2.50;;;2.03;;
12088;SDS011;6107;49.078;8.578;2023-03-23T02:24:30;3.23;;;1.50;;
12088;SDS011;6107;49.078;8.578;2023-03-23T02:27:06;1.87;;;1.40;;
12088;SDS011;6107;49.078;8.578;2023-03-23T02:29:47;1.27;;;1.17;;
12088;SDS011;6107;49.078;8.578;2023-03-23T02:32:31;4.07;;;1.50;;
12088;SDS011;6107;49.078;8.578;2023-03-23T02:34:59;2.70;;;1.30;;
12088;SDS011;6107;49.078;8.578;2023-03-23T02:37:31;1.60;;;1.40;;
12088;SDS011;6107;49.078;8.578;2023-03-23T02:40:06;1.83;;;1.30;;
12088;SDS011;6107;49.078;8.578;2023-03-23T02:42:34;1.60;;;1.30;;
12088;SDS011;6107;49.078;8.578;2023-03-23T02:45:03;2.60;;;1.50;;
12088;SDS011;6107;49.078;8.578;2023-03-23T02:47:30;2.60;;;1.40;;
12088;SDS011;6107;49.078;8.578;2023-03-23T02:49:56;1.97;;;1.50;;
12088;SDS011;6107;49.078;8.578;2023-03-23T02:52:27;1.63;;;1.50;;
12088;SDS011;6107;49.078;8.578;2023-03-23T02:54:54;1.80;;;1.30;;
12088;SDS011;6107;49.078;8.578;2023-03-23T02:57:23;2.20;;;1.20;;
12088;SDS011;6107;49.078;8.578;2023-03-23T02:59:50;2.30;;;1.50;;
12088;SDS011;6107;49.078;8.578;2023-03-23T03:02:17;2.60;;;1.27;;
12088;SDS011;6107;49.078;8.578;2023-03-23T03:04:46;2.73;;;1.43;;
12088;SDS011;6107;49.078;8.578;2023-03-23T03:09:57;2.37;;;1.20;;
12088;SDS011;6107;49.078;8.578;2023-03-23T03:17:32;2.17;;;1.37;;
12088;SDS011;6107;49.078;8.578;2023-03-23T03:20:01;1.40;;;1.10;;
12088;SDS011;6107;49.078;8.578;2023-03-23T03:22:39;2.60;;;1.20;;
12088;SDS011;6107;49.078;8.578;2023-03-23T03:25:09;1.63;;;1.30;;
12088;SDS011;6107;49.078;8.578;2023-03-23T03:27:40;2.37;;;1.70;;
12088;SDS011;6107;49.078;8.578;2023-03-23T03:30:07;4.43;;;1.40;;
12088;SDS011;6107;49.078;8.578;2023-03-23T03:32:36;2.80;;;1.50;;
12088;SDS011;6107;49.078;8.578;2023-03-23T03:35:04;2.57;;;1.27;;
12088;SDS011;6107;49.078;8.578;2023-03-23T03:37:37;1.70;;;1.30;;
12088;SDS011;6107;49.078;8.578;2023-03-23T03:40:06;2.03;;;1.30;;
12088;SDS011;6107;49.078;8.578;2023-03-23T03:42:40;1.97;;;1.40;;
12088;SDS011;6107;49.078;8.578;2023-03-23T03:45:11;1.87;;;1.40;;
12088;SDS011;6107;49.078;8.578;2023-03-23T03:47:38;1.67;;;1.40;;
12088;SDS011;6107;49.078;8.578;2023-03-23T03:50:04;1.60;;;1.40;;
12088;SDS011;6107;49.078;8.578;2023-03-23T03:52:30;2.97;;;1.60;;
12088;SDS011;6107;49.078;8.578;2023-03-23T03:54:57;3.07;;;1.60;;
12088;SDS011;6107;49.078;8.578;2023-03-23T03:57:23;2.23;;;1.63;;
12088;SDS011;6107;49.078;8.578;2023-03-23T03:59:49;2.47;;;1.70;;
12088;SDS011;6107;49.078;8.578;2023-03-23T04:02:16;2.23;;;1.50;;
12088;SDS011;6107;49.078;8.578;2023-03-23T04:04:45;2.63;;;1.80;;
12088;SDS011;6107;49.078;8.578;2023-03-23T04:07:11;2.97;;;1.47;;
12088;SDS011;6107;49.078;8.578;2023-03-23T04:09:38;3.13;;;1.60;;
12088;SDS011;6107;49.078;8.578;2023-03-23T04:12:04;1.90;;;1.50;;
12088;SDS011;6107;49.078;8.578;2023-03-23T04:14:30;1.93;;;1.50;;
12088;SDS011;6107;49.078;8.578;2023-03-23T04:16:56;2.10;;;1.50;;
12088;SDS011;6107;49.078;8.578;2023-03-23T04:19:23;3.40;;;1.77;;
12088;SDS011;6107;49.078;8.578;2023-03-23T04:21:49;3.10;;;1.80;;
12088;SDS011;6107;49.078;8.578;2023-03-23T04:24:15;2.80;;;1.50;;
12088;SDS011;6107;49.078;8.578;2023-03-23T04:26:41;2.60;;;1.50;;
12088;SDS011;6107;49.078;8.578;2023-03-23T04:29:09;2.40;;;1.60;;
12088;SDS011;6107;49.078;8.578;2023-03-23T04:31:37;2.70;;;1.70;;
12088;SDS011;6107;49.078;8.578;2023-03-23T04:34:04;1.63;;;1.30;;
12088;SDS011;6107;49.078;8.578;2023-03-23T04:36:30;2.80;;;2.13;;
12088;SDS011;6107;49.078;8.578;2023-03-23T04:38:58;3.93;;;1.60;;
12088;SDS011;6107;49.078;8.578;2023-03-23T04:41:25;2.30;;;1.70;;
12088;SDS011;6107;49.078;8.578;2023-03-23T04:43:51;2.53;;;1.50;;
12088;SDS011;6107;49.078;8.578;2023-03-23T04:46:21;2.50;;;1.60;;
12088;SDS011;6107;49.078;8.578;2023-03-23T04:48:47;2.50;;;1.70;;
12088;SDS011;6107;49.078;8.578;2023-03-23T04:51:13;1.90;;;1.30;;
12088;SDS011;6107;49.078;8.578;2023-03-23T04:53:39;3.07;;;1.70;;
12088;SDS011;6107;49.078;8.578;2023-03-23T04:56:06;2.93;;;1.53;;
12088;SDS011;6107;49.078;8.578;2023-03-23T04:58:32;2.27;;;1.60;;
12088;SDS011;6107;49.078;8.578;2023-03-23T05:01:01;1.53;;;1.40;;
12088;SDS011;6107;49.078;8.578;2023-03-23T05:03:27;2.60;;;1.60;;
12088;SDS011;6107;49.078;8.578;2023-03-23T05:05:53;2.80;;;1.80;;
12088;SDS011;6107;49.078;8.578;2023-03-23T05:08:20;2.33;;;1.60;;
12088;SDS011;6107;49.078;8.578;2023-03-23T05:10:49;2.30;;;1.50;;
12088;SDS011;6107;49.078;8.578;2023-03-23T05:13:16;3.20;;;1.90;;
12088;SDS011;6107;49.078;8.578;2023-03-23T05:15:42;2.70;;;1.67;;
12088;SDS011;6107;49.078;8.578;2023-03-23T05:18:08;3.00;;;1.70;;
12088;SDS011;6107;49.078;8.578;2023-03-23T05:20:35;1.90;;;1.57;;
12088;SDS011;6107;49.078;8.578;2023-03-23T05:23:01;2.00;;;1.60;;
12088;SDS011;6107;49.078;8.578;2023-03-23T05:25:27;3.90;;;1.60;;
12088;SDS011;6107;49.078;8.578;2023-03-23T05:27:53;2.13;;;1.60;;
12088;SDS011;6107;49.078;8.578;2023-03-23T05:30:19;2.20;;;1.50;;
12088;SDS011;6107;49.078;8.578;2023-03-23T05:32:46;1.87;;;1.37;;
12088;SDS011;6107;49.078;8.578;2023-03-23T05:35:15;2.63;;;1.37;;
12088;SDS011;6107;49.078;8.578;2023-03-23T05:37:42;3.23;;;1.50;;
12088;SDS011;6107;49.078;8.578;2023-03-23T05:40:09;1.53;;;1.40;;
12088;SDS011;6107;49.078;8.578;2023-03-23T05:42:37;2.87;;;1.67;;
12088;SDS011;6107;49.078;8.578;2023-03-23T05:45:05;2.63;;;1.77;;
12088;SDS011;6107;49.078;8.578;2023-03-23T05:47:31;1.87;;;1.60;;
12088;SDS011;6107;49.078;8.578;2023-03-23T05:49:57;1.90;;;1.70;;
12088;SDS011;6107;49.078;8.578;2023-03-23T05:52:23;1.67;;;1.57;;
12088;SDS011;6107;49.078;8.578;2023-03-23T05:54:50;4.00;;;1.70;;
12088;SDS011;6107;49.078;8.578;2023-03-23T05:57:16;4.20;;;2.00;;
12088;SDS011;6107;49.078;8.578;2023-03-23T05:59:43;1.87;;;1.40;;
12088;SDS011;6107;49.078;8.578;2023-03-23T06:02:10;3.00;;;1.77;;
12088;SDS011;6107;49.078;8.578;2023-03-23T06:04:36;2.37;;;1.70;;
12088;SDS011;6107;49.078;8.578;2023-03-23T06:07:03;3.13;;;1.90;;
12088;SDS011;6107;49.078;8.578;2023-03-23T06:09:29;1.90;;;1.63;;
12088;SDS011;6107;49.078;8.578;2023-03-23T06:11:55;3.63;;;1.73;;
12088;SDS011;6107;49.078;8.578;2023-03-23T06:14:22;1.60;;;1.43;;
12088;SDS011;6107;49.078;8.578;2023-03-23T06:16:48;2.30;;;1.70;;
12088;SDS011;6107;49.078;8.578;2023-03-23T06:19:14;2.20;;;1.80;;
12088;SDS011;6107;49.078;8.578;2023-03-23T06:21:41;2.93;;;1.90;;
12088;SDS011;6107;49.078;8.578;2023-03-23T06:24:07;4.53;;;2.00;;
12088;SDS011;6107;49.078;8.578;2023-03-23T06:26:34;4.77;;;2.00;;
12088;SDS011;6107;49.078;8.578;2023-03-23T06:29:01;2.47;;;1.90;;
12088;SDS011;6107;49.078;8.578;2023-03-23T06:31:29;2.60;;;1.90;;
12088;SDS011;6107;49.078;8.578;2023-03-23T06:33:56;2.70;;;1.90;;
12088;SDS011;6107;49.078;8.578;2023-03-23T06:36:22;2.83;;;1.93;;
12088;SDS011;6107;49.078;8.578;2023-03-23T06:38:48;3.50;;;2.20;;
12088;SDS011;6107;49.078;8.578;2023-03-23T06:41:14;2.53;;;1.83;;
12088;SDS011;6107;49.078;8.578;2023-03-23T06:43:41;3.17;;;2.20;;
12088;SDS011;6107;49.078;8.578;2023-03-23T06:46:08;2.57;;;2.20;;
12088;SDS011;6107;49.078;8.578;2023-03-23T06:48:35;4.80;;;2.47;;
12088;SDS011;6107;49.078;8.578;2023-03-23T06:51:01;3.97;;;2.50;;
12088;SDS011;6107;49.078;8.578;2023-03-23T06:53:27;4.37;;;2.70;;
12088;SDS011;6107;49.078;8.578;2023-03-23T06:55:53;3.20;;;2.30;;
12088;SDS011;6107;49.078;8.578;2023-03-23T06:58:19;2.87;;;2.20;;
12088;SDS011;6107;49.078;8.578;2023-03-23T07:00:46;3.23;;;1.97;;
12088;SDS011;6107;49.078;8.578;2023-03-23T07:03:12;5.07;;;2.10;;
12088;SDS011;6107;49.078;8.578;2023-03-23T07:05:38;3.23;;;2.13;;
12088;SDS011;6107;49.078;8.578;2023-03-23T07:08:04;3.30;;;2.13;;
12088;SDS011;6107;49.078;8.578;2023-03-23T07:10:30;2.70;;;2.10;;
12088;SDS011;6107;49.078;8.578;2023-03-23T07:12:58;4.10;;;2.00;;
12088;SDS011;6107;49.078;8.578;2023-03-23T07:15:25;2.70;;;2.10;;
12088;SDS011;6107;49.078;8.578;2023-03-23T07:17:51;3.30;;;2.17;;
12088;SDS011;6107;49.078;8.578;2023-03-23T07:20:19;5.57;;;2.17;;
12088;SDS011;6107;49.078;8.578;2023-03-23T07:22:45;2.60;;;2.00;;
12088;SDS011;6107;49.078;8.578;2023-03-23T07:25:11;2.80;;;1.93;;
12088;SDS011;6107;49.078;8.578;2023-03-23T07:27:37;3.17;;;2.10;;
12088;SDS011;6107;49.078;8.578;2023-03-23T07:30:03;3.63;;;2.10;;
12088;SDS011;6107;49.078;8.578;2023-03-23T07:32:29;3.27;;;2.17;;
12088;SDS011;6107;49.078;8.578;2023-03-23T07:34:56;2.63;;;1.90;;
12088;SDS011;6107;49.078;8.578;2023-03-23T07:37:22;5.10;;;2.50;;
12088;SDS011;6107;49.078;8.578;2023-03-23T07:39:48;2.53;;;2.00;;
12088;SDS011;6107;49.078;8.578;2023-03-23T07:42:14;4.93;;;2.27;;
12088;SDS011;6107;49.078;8.578;2023-03-23T07:44:40;3.03;;;2.17;;
12088;SDS011;6107;49.078;8.578;2023-03-23T07:47:06;4.50;;;2.20;;
12088;SDS011;6107;49.078;8.578;2023-03-23T07:49:32;4.47;;;2.00;;
12088;SDS011;6107;49.078;8.578;2023-03-23T07:51:58;2.93;;;2.20;;
12088;SDS011;6107;49.078;8.578;2023-03-23T07:54:26;4.17;;;2.50;;
12088;SDS011;6107;49.078;8.578;2023-03-23T07:56:52;3.33;;;1.97;;
12088;SDS011;6107;49.078;8.578;2023-03-23T07:59:18;4.00;;;2.30;;
12088;SDS011;6107;49.078;8.578;2023-03-23T08:01:45;4.10;;;2.60;;
12088;SDS011;6107;49.078;8.578;2023-03-23T08:04:11;3.00;;;2.30;;
12088;SDS011;6107;49.078;8.578;2023-03-23T08:06:38;2.93;;;1.93;;
12088;SDS011;6107;49.078;8.578;2023-03-23T08:09:04;4.40;;;2.20;;
12088;SDS011;6107;49.078;8.578;2023-03-23T08:11:34;4.40;;;1.90;;
12088;SDS011;6107;49.078;8.578;2023-03-23T08:14:00;4.03;;;2.17;;
12088;SDS011;6107;49.078;8.578;2023-03-23T08:16:27;3.93;;;2.30;;
12088;SDS011;6107;49.078;8.578;2023-03-23T08:18:53;4.97;;;2.30;;
12088;SDS011;6107;49.078;8.578;2023-03-23T08:21:20;2.37;;;2.00;;
12088;SDS011;6107;49.078;8.578;2023-03-23T08:23:47;4.83;;;2.20;;
12088;SDS011;6107;49.078;8.578;2023-03-23T08:26:13;2.90;;;1.97;;
12088;SDS011;6107;49.078;8.578;2023-03-23T08:28:40;3.07;;;2.13;;
12088;SDS011;6107;49.078;8.578;2023-03-23T08:31:12;2.43;;;2.20;;
12088;SDS011;6107;49.078;8.578;2023-03-23T08:33:38;3.23;;;2.43;;
12088;SDS011;6107;49.078;8.578;2023-03-23T08:36:06;3.67;;;2.63;;
12088;SDS011;6107;49.078;8.578;2023-03-23T08:38:32;4.07;;;2.30;;
12088;SDS011;6107;49.078;8.578;2023-03-23T08:40:59;3.53;;;2.30;;
12088;SDS011;6107;49.078;8.578;2023-03-23T08:43:26;3.43;;;2.47;;
12088;SDS011;6107;49.078;8.578;2023-03-23T08:45:52;3.33;;;2.30;;
12088;SDS011;6107;49.078;8.578;2023-03-23T08:48:19;5.83;;;2.33;;
12088;SDS011;6107;49.078;8.578;2023-03-23T08:50:45;2.60;;;1.90;;
12088;SDS011;6107;49.078;8.578;2023-03-23T08:53:11;3.57;;;2.43;;
12088;SDS011;6107;49.078;8.578;2023-03-23T08:55:37;4.07;;;2.27;;
12088;SDS011;6107;49.078;8.578;2023-03-23T08:58:04;3.00;;;2.30;;
12088;SDS011;6107;49.078;8.578;2023-03-23T09:00:30;9.57;;;4.60;;
12088;SDS011;6107;49.078;8.578;2023-03-23T09:02:57;6.03;;;3.60;;
12088;SDS011;6107;49.078;8.578;2023-03-23T09:05:25;4.43;;;2.63;;
12088;SDS011;6107;49.078;8.578;2023-03-23T09:07:52;4.90;;;3.40;;
12088;SDS011;6107;49.078;8.578;2023-03-23T09:10:18;7.60;;;3.57;;
12088;SDS011;6107;49.078;8.578;2023-03-23T09:12:45;3.77;;;3.33;;
12088;SDS011;6107;49.078;8.578;2023-03-23T09:15:12;4.10;;;2.33;;
12088;SDS011;6107;49.078;8.578;2023-03-23T09:17:41;2.97;;;1.97;;
12088;SDS011;6107;49.078;8.578;2023-03-23T09:20:08;4.20;;;2.30;;
12088;SDS011;6107;49.078;8.578;2023-03-23T09:22:36;1.80;;;1.50;;
12088;SDS011;6107;49.078;8.578;2023-03-23T09:25:04;2.07;;;1.53;;
12088;SDS011;6107;49.078;8.578;2023-03-23T09:27:30;2.07;;;1.60;;
12088;SDS011;6107;49.078;8.578;2023-03-23T09:29:56;3.17;;;1.80;;
12088;SDS011;6107;49.078;8.578;2023-03-23T09:32:22;4.83;;;2.37;;
12088;SDS011;6107;49.078;8.578;2023-03-23T09:34:48;3.00;;;1.60;;
12088;SDS011;6107;49.078;8.578;2023-03-23T09:37:14;4.83;;;1.70;;
12088;SDS011;6107;49.078;8.578;2023-03-23T09:39:41;3.50;;;2.17;;
12088;SDS011;6107;49.078;8.578;2023-03-23T09:44:56;2.13;;;1.50;;
12088;SDS011;6107;49.078;8.578;2023-03-23T09:47:36;3.83;;;1.53;;
12088;SDS011;6107;49.078;8.578;2023-03-23T09:50:07;1.80;;;1.53;;
12088;SDS011;6107;49.078;8.578;2023-03-23T09:52:39;2.60;;;1.80;;
12088;SDS011;6107;49.078;8.578;2023-03-23T09:55:08;1.90;;;1.60;;
12088;SDS011;6107;49.078;8.578;2023-03-23T09:57:40;4.60;;;1.50;;
12088;SDS011;6107;49.078;8.578;2023-03-23T10:00:10;1.93;;;1.50;;
12088;SDS011;6107;49.078;8.578;2023-03-23T10:02:41;2.20;;;1.50;;
12088;SDS011;6107;49.078;8.578;2023-03-23T10:07:45;1.63;;;1.40;;
12088;SDS011;6107;49.078;8.578;2023-03-23T10:10:12;1.97;;;1.47;;
12088;SDS011;6107;49.078;8.578;2023-03-23T10:15:18;2.13;;;1.80;;
12088;SDS011;6107;49.078;8.578;2023-03-23T10:18:20;3.10;;;1.73;;
12088;SDS011;6107;49.078;8.578;2023-03-23T10:20:47;2.27;;;1.60;;
12088;SDS011;6107;49.078;8.578;2023-03-23T10:28:39;2.30;;;1.40;;
12088;SDS011;6107;49.078;8.578;2023-03-23T10:31:09;2.13;;;1.63;;
12088;SDS011;6107;49.078;8.578;2023-03-23T10:33:40;1.77;;;1.40;;
12088;SDS011;6107;49.078;8.578;2023-03-23T10:38:58;3.93;;;1.90;;
12088;SDS011;6107;49.078;8.578;2023-03-23T10:41:24;2.03;;;1.60;;
12088;SDS011;6107;49.078;8.578;2023-03-23T10:43:50;2.30;;;1.30;;
12088;SDS011;6107;49.078;8.578;2023-03-23T10:49:04;2.70;;;1.70;;
12088;SDS011;6107;49.078;8.578;2023-03-23T10:51:34;5.00;;;2.17;;
12088;SDS011;6107;49.078;8.578;2023-03-23T10:54:01;1.63;;;1.50;;
12088;SDS011;6107;49.078;8.578;2023-03-23T10:56:34;3.93;;;1.70;;
12088;SDS011;6107;49.078;8.578;2023-03-23T10:59:10;3.33;;;1.80;;
12088;SDS011;6107;49.078;8.578;2023-03-23T11:01:37;2.40;;;1.70;;
12088;SDS011;6107;49.078;8.578;2023-03-23T11:04:03;4.23;;;1.60;;
12088;SDS011;6107;49.078;8.578;2023-03-23T11:06:36;3.50;;;1.50;;
12088;SDS011;6107;49.078;8.578;2023-03-23T11:09:14;2.33;;;1.60;;
12088;SDS011;6107;49.078;8.578;2023-03-23T11:11:43;2.07;;;1.53;;
12088;SDS011;6107;49.078;8.578;2023-03-23T11:14:35;3.20;;;2.07;;
12088;SDS011;6107;49.078;8.578;2023-03-23T11:17:04;2.87;;;1.47;;
12088;SDS011;6107;49.078;8.578;2023-03-23T11:19:44;2.67;;;1.83;;
12088;SDS011;6107;49.078;8.578;2023-03-23T11:22:15;1.87;;;1.33;;
12088;SDS011;6107;49.078;8.578;2023-03-23T11:24:44;2.93;;;1.60;;
12088;SDS011;6107;49.078;8.578;2023-03-23T11:27:12;2.53;;;1.83;;
12088;SDS011;6107;49.078;8.578;2023-03-23T11:32:33;2.83;;;1.53;;
12088;SDS011;6107;49.078;8.578;2023-03-23T11:35:02;2.10;;;1.60;;
12088;SDS011;6107;49.078;8.578;2023-03-23T11:42:47;2.60;;;1.70;;
12088;SDS011;6107;49.078;8.578;2023-03-23T11:48:03;2.77;;;2.00;;
12088;SDS011;6107;49.078;8.578;2023-03-23T11:50:35;4.03;;;1.87;;
12088;SDS011;6107;49.078;8.578;2023-03-23T11:55:51;2.97;;;1.80;;
12088;SDS011;6107;49.078;8.578;2023-03-23T11:58:20;2.93;;;2.00;;
12088;SDS011;6107;49.078;8.578;2023-03-23T12:00:53;3.13;;;1.80;;
12088;SDS011;6107;49.078;8.578;2023-03-23T12:03:21;3.37;;;1.90;;
12088;SDS011;6107;49.078;8.578;2023-03-23T12:11:02;2.13;;;1.70;;
12088;SDS011;6107;49.078;8.578;2023-03-23T12:13:44;3.00;;;1.50;;
12088;SDS011;6107;49.078;8.578;2023-03-23T12:16:28;4.13;;;1.60;;
12088;SDS011;6107;49.078;8.578;2023-03-23T12:21:42;1.70;;;1.60;;
12088;SDS011;6107;49.078;8.578;2023-03-23T12:26:39;3.17;;;1.90;;
12088;SDS011;6107;49.078;8.578;2023-03-23T12:32:24;2.50;;;1.90;;
12088;SDS011;6107;49.078;8.578;2023-03-23T12:34:32;4.20;;;1.80;;
12088;SDS011;6107;49.078;8.578;2023-03-23T12:42:10;2.93;;;1.80;;
12088;SDS011;6107;49.078;8.578;2023-03-23T12:44:59;2.80;;;1.70;;
12088;SDS011;6107;49.078;8.578;2023-03-23T12:47:35;3.57;;;1.60;;
12088;SDS011;6107;49.078;8.578;2023-03-23T12:55:16;2.70;;;1.63;;
12088;SDS011;6107;49.078;8.578;2023-03-23T13:00:23;2.53;;;1.67;;
12088;SDS011;6107;49.078;8.578;2023-03-23T13:07:51;1.80;;;1.50;;
12088;SDS011;6107;49.078;8.578;2023-03-23T13:10:22;3.30;;;1.60;;
12088;SDS011;6107;49.078;8.578;2023-03-23T13:12:49;2.10;;;1.40;;
12088;SDS011;6107;49.078;8.578;2023-03-23T13:15:18;2.40;;;1.40;;
12088;SDS011;6107;49.078;8.578;2023-03-23T13:17:55;1.67;;;1.40;;
12088;SDS011;6107;49.078;8.578;2023-03-23T13:22:59;2.00;;;1.57;;
12088;SDS011;6107;49.078;8.578;2023-03-23T13:25:35;2.70;;;1.80;;
12088;SDS011;6107;49.078;8.578;2023-03-23T13:28:03;2.90;;;1.47;;
12088;SDS011;6107;49.078;8.578;2023-03-23T13:30:29;1.83;;;1.60;;
12088;SDS011;6107;49.078;8.578;2023-03-23T13:33:03;1.93;;;1.47;;
12088;SDS011;6107;49.078;8.578;2023-03-23T13:35:33;2.10;;;1.40;;
12088;SDS011;6107;49.078;8.578;2023-03-23T13:37:59;2.80;;;1.67;;
12088;SDS011;6107;49.078;8.578;2023-03-23T13:40:26;1.50;;;1.40;;
12088;SDS011;6107;49.078;8.578;2023-03-23T13:42:54;2.90;;;2.30;;
12088;SDS011;6107;49.078;8.578;2023-03-23T13:45:22;2.43;;;1.63;;
12088;SDS011;6107;49.078;8.578;2023-03-23T13:47:49;2.67;;;1.33;;
12088;SDS011;6107;49.078;8.578;2023-03-23T14:02:48;3.93;;;1.53;;
12088;SDS011;6107;49.078;8.578;2023-03-23T14:07:57;2.55;;;1.60;;
12088;SDS011;6107;49.078;8.578;2023-03-23T14:10:36;2.95;;;1.80;;
12088;SDS011;6107;49.078;8.578;2023-03-23T14:13:03;2.80;;;1.90;;
12088;SDS011;6107;49.078;8.578;2023-03-23T14:15:30;3.00;;;1.90;;
12088;SDS011;6107;49.078;8.578;2023-03-23T14:17:56;2.73;;;2.07;;
12088;SDS011;6107;49.078;8.578;2023-03-23T14:20:30;2.57;;;1.80;;
12088;SDS011;6107;49.078;8.578;2023-03-23T14:22:58;2.17;;;1.88;;
12088;SDS011;6107;49.078;8.578;2023-03-23T14:25:26;3.30;;;2.23;;
12088;SDS011;6107;49.078;8.578;2023-03-23T14:27:53;4.13;;;2.08;;
12088;SDS011;6107;49.078;8.578;2023-03-23T14:30:20;3.00;;;2.17;;
12088;SDS011;6107;49.078;8.578;2023-03-23T14:32:46;2.63;;;2.20;;
12088;SDS011;6107;49.078;8.578;2023-03-23T14:37:43;3.03;;;2.20;;
12088;SDS011;6107;49.078;8.578;2023-03-23T14:40:12;3.03;;;2.43;;
12088;SDS011;6107;49.078;8.578;2023-03-23T14:42:39;4.00;;;2.15;;
12088;SDS011;6107;49.078;8.578;2023-03-23T14:45:06;2.40;;;2.20;;
12088;SDS011;6107;49.078;8.578;2023-03-23T14:47:37;4.27;;;2.30;;
12088;SDS011;6107;49.078;8.578;2023-03-23T14:50:05;5.03;;;2.70;;
12088;SDS011;6107;49.078;8.578;2023-03-23T14:52:35;2.60;;;2.40;;
12088;SDS011;6107;49.078;8.578;2023-03-23T14:55:16;4.63;;;3.70;;
12088;SDS011;6107;49.078;8.578;2023-03-23T14:57:43;4.57;;;2.65;;
12088;SDS011;6107;49.078;8.578;2023-03-23T15:00:13;3.25;;;2.25;;
12088;SDS011;6107;49.078;8.578;2023-03-23T15:02:40;3.00;;;2.40;;
12088;SDS011;6107;49.078;8.578;2023-03-23T15:05:14;4.07;;;2.22;;
12088;SDS011;6107;49.078;8.578;2023-03-23T15:07:42;2.42;;;2.15;;
12088;SDS011;6107;49.078;8.578;2023-03-23T15:10:09;3.67;;;2.15;;
12088;SDS011;6107;49.078;8.578;2023-03-23T15:12:39;3.90;;;2.45;;
12088;SDS011;6107;49.078;8.578;2023-03-23T15:15:06;3.17;;;2.53;;
12088;SDS011;6107;49.078;8.578;2023-03-23T15:17:35;5.70;;;3.50;;
12088;SDS011;6107;49.078;8.578;2023-03-23T15:20:09;7.35;;;4.25;;
12088;SDS011;6107;49.078;8.578;2023-03-23T15:22:35;8.20;;;3.78;;
12088;SDS011;6107;49.078;8.578;2023-03-23T15:27:57;6.13;;;4.05;;
12088;SDS011;6107;49.078;8.578;2023-03-23T15:32:54;4.63;;;3.40;;
12088;SDS011;6107;49.078;8.578;2023-03-23T15:35:24;4.35;;;2.88;;
12088;SDS011;6107;49.078;8.578;2023-03-23T15:37:51;3.97;;;2.88;;
12088;SDS011;6107;49.078;8.578;2023-03-23T15:40:20;4.45;;;2.83;;
12088;SDS011;6107;49.078;8.578;2023-03-23T15:42:47;3.90;;;2.55;;
12088;SDS011;6107;49.078;8.578;2023-03-23T15:50:13;3.92;;;2.88;;
12088;SDS011;6107;49.078;8.578;2023-03-23T15:52:39;4.32;;;2.78;;
12088;SDS011;6107;49.078;8.578;2023-03-23T15:57:44;5.88;;;4.75;;
12088;SDS011;6107;49.078;8.578;2023-03-23T16:00:11;5.38;;;4.53;;
12088;SDS011;6107;49.078;8.578;2023-03-23T16:02:37;3.20;;;2.65;;
12088;SDS011;6107;49.078;8.578;2023-03-23T16:05:03;4.22;;;3.28;;
12088;SDS011;6107;49.078;8.578;2023-03-23T16:07:30;5.82;;;3.10;;
12088;SDS011;6107;49.078;8.578;2023-03-23T16:09:56;9.52;;;6.05;;
12088;SDS011;6107;49.078;8.578;2023-03-23T16:12:22;9.80;;;5.55;;
12088;SDS011;6107;49.078;8.578;2023-03-23T16:14:48;7.18;;;4.45;;
12088;SDS011;6107;49.078;8.578;2023-03-23T16:17:15;7.43;;;4.28;;
12088;SDS011;6107;49.078;8.578;2023-03-23T16:19:42;7.72;;;5.07;;
12088;SDS011;6107;49.078;8.578;2023-03-23T16:22:08;7.32;;;4.88;;
12088;SDS011;6107;49.078;8.578;2023-03-23T16:24:34;9.20;;;5.60;;
12088;SDS011;6107;49.078;8.578;2023-03-23T16:27:00;9.77;;;5.75;;
12088;SDS011;6107;49.078;8.578;2023-03-23T16:29:26;8.95;;;5.70;;
12088;SDS011;6107;49.078;8.578;2023-03-23T16:31:52;6.80;;;4.75;;
12088;SDS011;6107;49.078;8.578;2023-03-23T16:34:18;7.05;;;4.07;;
12088;SDS011;6107;49.078;8.578;2023-03-23T16:36:44;5.80;;;3.83;;
12088;SDS011;6107;49.078;8.578;2023-03-23T16:39:10;5.60;;;3.63;;
12088;SDS011;6107;49.078;8.578;2023-03-23T16:41:37;4.78;;;3.10;;
12088;SDS011;6107;49.078;8.578;2023-03-23T16:44:03;6.23;;;3.50;;
12088;SDS011;6107;49.078;8.578;2023-03-23T16:46:29;5.05;;;3.33;;
12088;SDS011;6107;49.078;8.578;2023-03-23T16:48:55;4.90;;;3.08;;
12088;SDS011;6107;49.078;8.578;2023-03-23T16:51:21;5.53;;;3.28;;
12088;SDS011;6107;49.078;8.578;2023-03-23T16:53:47;7.70;;;4.40;;
12088;SDS011;6107;49.078;8.578;2023-03-23T16:56:13;6.37;;;4.00;;
12088;SDS011;6107;49.078;8.578;2023-03-23T16:58:39;7.22;;;3.42;;